Aviation Digital Data Service (ADDS)

Output produced by METARs form (0216 UTC 22 February 2019)
found at http://www.aviationweather.gov/metar/data/
 
METAR text: NVVV 220000Z 34007KT 9999 SCT025 31/25 Q1008 RMK NIL
Conditions at: NVVV (BAUERFIELD/EFATE, VU) observed 0000 UTC 22 February 2019
Temperature: 31.0°C (88°F)
Dewpoint: 25.0°C (77°F) [RH = 71%]
Pressure (altimeter): 29.76 inches Hg (1008.0 mb)
Winds: from the NNW (340 degrees) at 8 MPH (7 knots; 3.6 m/s)
Visibility: 6 or more miles (10+ km)
Ceiling: at least 12,000 feet AGL
Clouds: scattered clouds at 2500 feet AGL
Weather: no significant weather observed at this time

METAR text: NVVV 212300Z 35005KT 9999 SCT025 30/25 Q1009
Conditions at: NVVV (BAUERFIELD/EFATE, VU) observed 2300 UTC 21 February 2019
Temperature: 30.0°C (86°F)
Dewpoint: 25.0°C (77°F) [RH = 75%]
Pressure (altimeter): 29.79 inches Hg (1009.0 mb)
Winds: from the N (350 degrees) at 6 MPH (5 knots; 2.6 m/s)
Visibility: 6 or more miles (10+ km)
Ceiling: at least 12,000 feet AGL
Clouds: scattered clouds at 2500 feet AGL
Weather: no significant weather observed at this time

METAR text: NVVV 212200Z 33005KT 9999 SCT025 30/25 Q1008 RMK NIL
Conditions at: NVVV (BAUERFIELD/EFATE, VU) observed 2200 UTC 21 February 2019
Temperature: 30.0°C (86°F)
Dewpoint: 25.0°C (77°F) [RH = 75%]
Pressure (altimeter): 29.76 inches Hg (1008.0 mb)
Winds: from the NNW (330 degrees) at 6 MPH (5 knots; 2.6 m/s)
Visibility: 6 or more miles (10+ km)
Ceiling: at least 12,000 feet AGL
Clouds: scattered clouds at 2500 feet AGL
Weather: no significant weather observed at this time

METAR text: NVVV 212100Z 29001KT 9999 FEW025 BKN040 28/23 Q1008 RMK NIL
Conditions at: NVVV (BAUERFIELD/EFATE, VU) observed 2100 UTC 21 February 2019
Temperature: 28.0°C (82°F)
Dewpoint: 23.0°C (73°F) [RH = 74%]
Pressure (altimeter): 29.76 inches Hg (1008.0 mb)
Winds: from the WNW (290 degrees) at 1 MPH (1 knots; 0.5 m/s)
Visibility: 6 or more miles (10+ km)
Ceiling: 4000 feet AGL
Clouds: few clouds at 2500 feet AGL
broken clouds at 4000 feet AGL
Weather: no significant weather observed at this time

METAR text: NVVV 212000Z 13003KT 9999 FEW015 SCT020 BKN040 27/24 Q1008 RMK NIL
Conditions at: NVVV (BAUERFIELD/EFATE, VU) observed 2000 UTC 21 February 2019
Temperature: 27.0°C (81°F)
Dewpoint: 24.0°C (75°F) [RH = 84%]
Pressure (altimeter): 29.76 inches Hg (1008.0 mb)
Winds: from the SE (130 degrees) at 3 MPH (3 knots; 1.5 m/s)
Visibility: 6 or more miles (10+ km)
Ceiling: 4000 feet AGL
Clouds: few clouds at 1500 feet AGL
scattered clouds at 2000 feet AGL
broken clouds at 4000 feet AGL
Weather: no significant weather observed at this time

METAR text: NVVV 211900Z 36003KT 9999 FEW015 BKN020 26/24 Q1008 RMK RESH
Conditions at: NVVV (BAUERFIELD/EFATE, VU) observed 1900 UTC 21 February 2019
Temperature: 26.0°C (79°F)
Dewpoint: 24.0°C (75°F) [RH = 89%]
Pressure (altimeter): 29.76 inches Hg (1008.0 mb)
Winds: from the N (360 degrees) at 3 MPH (3 knots; 1.5 m/s)
Visibility: 6 or more miles (10+ km)
Ceiling: 2000 feet AGL
Clouds: few clouds at 1500 feet AGL
broken clouds at 2000 feet AGL
Weather: no significant weather observed at this time

METAR text: NVVV 211800Z 10002KT 9999 SCT018 25/24 Q1007 RMK NIL
Conditions at: NVVV (BAUERFIELD/EFATE, VU) observed 1800 UTC 21 February 2019
Temperature: 25.0°C (77°F)
Dewpoint: 24.0°C (75°F) [RH = 94%]
Pressure (altimeter): 29.73 inches Hg (1007.0 mb)
Winds: from the E (100 degrees) at 2 MPH (2 knots; 1.0 m/s)
Visibility: 6 or more miles (10+ km)
Ceiling: at least 12,000 feet AGL
Clouds: scattered clouds at 1800 feet AGL
Weather: no significant weather observed at this time

METAR text: NVVV 211700Z 33005KT 9999 BKN018 26/24 Q1007 RMK RESH
Conditions at: NVVV (BAUERFIELD/EFATE, VU) observed 1700 UTC 21 February 2019
Temperature: 26.0°C (79°F)
Dewpoint: 24.0°C (75°F) [RH = 89%]
Pressure (altimeter): 29.73 inches Hg (1007.0 mb)
Winds: from the NNW (330 degrees) at 6 MPH (5 knots; 2.6 m/s)
Visibility: 6 or more miles (10+ km)
Ceiling: 1800 feet AGL
Clouds: broken clouds at 1800 feet AGL
Weather: no significant weather observed at this time

METAR text: NVVV 211600Z 09005KT 9999 BKN018 25/24 Q1007 RMK RESH
Conditions at: NVVV (BAUERFIELD/EFATE, VU) observed 1600 UTC 21 February 2019
Temperature: 25.0°C (77°F)
Dewpoint: 24.0°C (75°F) [RH = 94%]
Pressure (altimeter): 29.73 inches Hg (1007.0 mb)
Winds: from the E (90 degrees) at 6 MPH (5 knots; 2.6 m/s)
Visibility: 6 or more miles (10+ km)
Ceiling: 1800 feet AGL
Clouds: broken clouds at 1800 feet AGL
Weather: no significant weather observed at this time

METAR text: NVVV 211500Z 29004KT 8000 -SHRA FEW015 BKN020 26/24 Q1007 RMK VIS REDUCED TO WEST INTER 1500/1700 7000 SHRA FEW012 BKN018 OVC040
Conditions at: NVVV (BAUERFIELD/EFATE, VU) observed 1500 UTC 21 February 2019
Temperature: 26.0°C (79°F)
Dewpoint: 24.0°C (75°F) [RH = 89%]
Pressure (altimeter): 29.73 inches Hg (1007.0 mb)
Winds: from the WNW (290 degrees) at 5 MPH (4 knots; 2.1 m/s)
Visibility: 5 miles ( 8 km)
Ceiling: 2000 feet AGL
Clouds: few clouds at 1500 feet AGL
broken clouds at 2000 feet AGL
Weather: -SHRA  (light rain showers)

METAR text: NVVV 211400Z 08003KT 9999 BKN018 26/24 Q1007 RMK RESH
Conditions at: NVVV (BAUERFIELD/EFATE, VU) observed 1400 UTC 21 February 2019
Temperature: 26.0°C (79°F)
Dewpoint: 24.0°C (75°F) [RH = 89%]
Pressure (altimeter): 29.73 inches Hg (1007.0 mb)
Winds: from the E (80 degrees) at 3 MPH (3 knots; 1.5 m/s)
Visibility: 6 or more miles (10+ km)
Ceiling: 1800 feet AGL
Clouds: broken clouds at 1800 feet AGL
Weather: no significant weather observed at this time

METAR text: NVVV 211300Z 08003KT 9999 -SHRA FEW015 BKN020 OVC040 26/24 Q1008 RMK NIL INTER 1300/1500 7000 SHRA FEW012 BKN018 OVC040
Conditions at: NVVV (BAUERFIELD/EFATE, VU) observed 1300 UTC 21 February 2019
Temperature: 26.0°C (79°F)
Dewpoint: 24.0°C (75°F) [RH = 89%]
Pressure (altimeter): 29.76 inches Hg (1008.0 mb)
Winds: from the E (80 degrees) at 3 MPH (3 knots; 1.5 m/s)
Visibility: 6 or more miles (10+ km)
Ceiling: 2000 feet AGL
Clouds: few clouds at 1500 feet AGL
broken clouds at 2000 feet AGL
overcast cloud deck at 4000 feet AGL
Weather: -SHRA  (light rain showers)

METAR text: NVVV 211200Z 01002KT 9999 BKN018 26/25 Q1008 RMK RESH
Conditions at: NVVV (BAUERFIELD/EFATE, VU) observed 1200 UTC 21 February 2019
Temperature: 26.0°C (79°F)
Dewpoint: 25.0°C (77°F) [RH = 94%]
Pressure (altimeter): 29.76 inches Hg (1008.0 mb)
Winds: from the N (10 degrees) at 2 MPH (2 knots; 1.0 m/s)
Visibility: 6 or more miles (10+ km)
Ceiling: 1800 feet AGL
Clouds: broken clouds at 1800 feet AGL
Weather: no significant weather observed at this time

METAR text: NVVV 211100Z 10005KT 9999 SCT020 BKN040 26/25 Q1008 RMK NIL
Conditions at: NVVV (BAUERFIELD/EFATE, VU) observed 1100 UTC 21 February 2019
Temperature: 26.0°C (79°F)
Dewpoint: 25.0°C (77°F) [RH = 94%]
Pressure (altimeter): 29.76 inches Hg (1008.0 mb)
Winds: from the E (100 degrees) at 6 MPH (5 knots; 2.6 m/s)
Visibility: 6 or more miles (10+ km)
Ceiling: 4000 feet AGL
Clouds: scattered clouds at 2000 feet AGL
broken clouds at 4000 feet AGL
Weather: no significant weather observed at this time

METAR text: NVVV 211000Z 02002KT 9999 SCT020 27/25 Q1007 RMK NIL
Conditions at: NVVV (BAUERFIELD/EFATE, VU) observed 1000 UTC 21 February 2019
Temperature: 27.0°C (81°F)
Dewpoint: 25.0°C (77°F) [RH = 89%]
Pressure (altimeter): 29.73 inches Hg (1007.0 mb)
Winds: from the NNE (20 degrees) at 2 MPH (2 knots; 1.0 m/s)
Visibility: 6 or more miles (10+ km)
Ceiling: at least 12,000 feet AGL
Clouds: scattered clouds at 2000 feet AGL
Weather: no significant weather observed at this time

METAR text: NVVV 210900Z 02002KT 9999 FEW015 BKN020 27/25 Q1007 RMK RESH
Conditions at: NVVV (BAUERFIELD/EFATE, VU) observed 0900 UTC 21 February 2019
Temperature: 27.0°C (81°F)
Dewpoint: 25.0°C (77°F) [RH = 89%]
Pressure (altimeter): 29.73 inches Hg (1007.0 mb)
Winds: from the NNE (20 degrees) at 2 MPH (2 knots; 1.0 m/s)
Visibility: 6 or more miles (10+ km)
Ceiling: 2000 feet AGL
Clouds: few clouds at 1500 feet AGL
broken clouds at 2000 feet AGL
Weather: no significant weather observed at this time

METAR text: NVVV 210800Z 31004KT 9999 BKN020 27/24 Q1006 RMK NIL
Conditions at: NVVV (BAUERFIELD/EFATE, VU) observed 0800 UTC 21 February 2019
Temperature: 27.0°C (81°F)
Dewpoint: 24.0°C (75°F) [RH = 84%]
Pressure (altimeter): 29.70 inches Hg (1006.0 mb)
Winds: from the NW (310 degrees) at 5 MPH (4 knots; 2.1 m/s)
Visibility: 6 or more miles (10+ km)
Ceiling: 2000 feet AGL
Clouds: broken clouds at 2000 feet AGL
Weather: no significant weather observed at this time

METAR text: NVVV 210700Z 34004KT 9999 SCT020 28/24 Q1005 RMK NIL
Conditions at: NVVV (BAUERFIELD/EFATE, VU) observed 0700 UTC 21 February 2019
Temperature: 28.0°C (82°F)
Dewpoint: 24.0°C (75°F) [RH = 79%]
Pressure (altimeter): 29.68 inches Hg (1005.0 mb)
Winds: from the NNW (340 degrees) at 5 MPH (4 knots; 2.1 m/s)
Visibility: 6 or more miles (10+ km)
Ceiling: at least 12,000 feet AGL
Clouds: scattered clouds at 2000 feet AGL
Weather: no significant weather observed at this time

METAR text: NVVV 210600Z 34006KT 9999 SCT020 29/25 Q1004 RMK NIL
Conditions at: NVVV (BAUERFIELD/EFATE, VU) observed 0600 UTC 21 February 2019
Temperature: 29.0°C (84°F)
Dewpoint: 25.0°C (77°F) [RH = 79%]
Pressure (altimeter): 29.65 inches Hg (1004.0 mb)
Winds: from the NNW (340 degrees) at 7 MPH (6 knots; 3.1 m/s)
Visibility: 6 or more miles (10+ km)
Ceiling: at least 12,000 feet AGL
Clouds: scattered clouds at 2000 feet AGL
Weather: no significant weather observed at this time

METAR text: NVVV 210500Z 34006KT 9999 SCT020 31/25 Q1004 RMK NIL
Conditions at: NVVV (BAUERFIELD/EFATE, VU) observed 0500 UTC 21 February 2019
Temperature: 31.0°C (88°F)
Dewpoint: 25.0°C (77°F) [RH = 71%]
Pressure (altimeter): 29.65 inches Hg (1004.0 mb)
Winds: from the NNW (340 degrees) at 7 MPH (6 knots; 3.1 m/s)
Visibility: 6 or more miles (10+ km)
Ceiling: at least 12,000 feet AGL
Clouds: scattered clouds at 2000 feet AGL
Weather: no significant weather observed at this time

METAR text: NVVV 210400Z 35006KT 9999 SCT020 31/25 Q1004 RMK NIL
Conditions at: NVVV (BAUERFIELD/EFATE, VU) observed 0400 UTC 21 February 2019
Temperature: 31.0°C (88°F)
Dewpoint: 25.0°C (77°F) [RH = 71%]
Pressure (altimeter): 29.65 inches Hg (1004.0 mb)
Winds: from the N (350 degrees) at 7 MPH (6 knots; 3.1 m/s)
Visibility: 6 or more miles (10+ km)
Ceiling: at least 12,000 feet AGL
Clouds: scattered clouds at 2000 feet AGL
Weather: no significant weather observed at this time

METAR text: NVVV 210300Z 35008KT 9999 BKN020 30/24 Q1004 RMK NIL
Conditions at: NVVV (BAUERFIELD/EFATE, VU) observed 0300 UTC 21 February 2019
Temperature: 30.0°C (86°F)
Dewpoint: 24.0°C (75°F) [RH = 70%]
Pressure (altimeter): 29.65 inches Hg (1004.0 mb)
Winds: from the N (350 degrees) at 9 MPH (8 knots; 4.1 m/s)
Visibility: 6 or more miles (10+ km)
Ceiling: 2000 feet AGL
Clouds: broken clouds at 2000 feet AGL
Weather: no significant weather observed at this time

METAR text: NVVV 210200Z 34007KT 9999 SCT020 31/25 Q1005 RMK NIL
Conditions at: NVVV (BAUERFIELD/EFATE, VU) observed 0200 UTC 21 February 2019
Temperature: 31.0°C (88°F)
Dewpoint: 25.0°C (77°F) [RH = 71%]
Pressure (altimeter): 29.68 inches Hg (1005.0 mb)
Winds: from the NNW (340 degrees) at 8 MPH (7 knots; 3.6 m/s)
Visibility: 6 or more miles (10+ km)
Ceiling: at least 12,000 feet AGL
Clouds: scattered clouds at 2000 feet AGL
Weather: no significant weather observed at this time

METAR text: NVVV 210100Z 35009KT 9999 SCT020 30/24 Q1006 RMK NIL
Conditions at: NVVV (BAUERFIELD/EFATE, VU) observed 0100 UTC 21 February 2019
Temperature: 30.0°C (86°F)
Dewpoint: 24.0°C (75°F) [RH = 70%]
Pressure (altimeter): 29.70 inches Hg (1006.0 mb)
Winds: from the N (350 degrees) at 10 MPH (9 knots; 4.6 m/s)
Visibility: 6 or more miles (10+ km)
Ceiling: at least 12,000 feet AGL
Clouds: scattered clouds at 2000 feet AGL
Weather: no significant weather observed at this time

METAR text: NVVV 210000Z 35008KT 9999 BKN020 30/25 Q1006 RMK NIL
Conditions at: NVVV (BAUERFIELD/EFATE, VU) observed 0000 UTC 21 February 2019
Temperature: 30.0°C (86°F)
Dewpoint: 25.0°C (77°F) [RH = 75%]
Pressure (altimeter): 29.70 inches Hg (1006.0 mb)
Winds: from the N (350 degrees) at 9 MPH (8 knots; 4.1 m/s)
Visibility: 6 or more miles (10+ km)
Ceiling: 2000 feet AGL
Clouds: broken clouds at 2000 feet AGL
Weather: no significant weather observed at this time

METAR text: NVVV 202300Z 36007KT 9999 BKN020 30/24 Q1006 RMK NIL
Conditions at: NVVV (BAUERFIELD/EFATE, VU) observed 2300 UTC 20 February 2019
Temperature: 30.0°C (86°F)
Dewpoint: 24.0°C (75°F) [RH = 70%]
Pressure (altimeter): 29.70 inches Hg (1006.0 mb)
Winds: from the N (360 degrees) at 8 MPH (7 knots; 3.6 m/s)
Visibility: 6 or more miles (10+ km)
Ceiling: 2000 feet AGL
Clouds: broken clouds at 2000 feet AGL
Weather: no significant weather observed at this time

METAR text: NVVV 202200Z 34009KT 9999 BKN020 29/25 Q1006 RMK NIL
Conditions at: NVVV (BAUERFIELD/EFATE, VU) observed 2200 UTC 20 February 2019
Temperature: 29.0°C (84°F)
Dewpoint: 25.0°C (77°F) [RH = 79%]
Pressure (altimeter): 29.70 inches Hg (1006.0 mb)
Winds: from the NNW (340 degrees) at 10 MPH (9 knots; 4.6 m/s)
Visibility: 6 or more miles (10+ km)
Ceiling: 2000 feet AGL
Clouds: broken clouds at 2000 feet AGL
Weather: no significant weather observed at this time

METAR text: NVVV 202100Z 01004KT 9999 SCT020 BKN040 27/24 Q1005 RMK RESH
Conditions at: NVVV (BAUERFIELD/EFATE, VU) observed 2100 UTC 20 February 2019
Temperature: 27.0°C (81°F)
Dewpoint: 24.0°C (75°F) [RH = 84%]
Pressure (altimeter): 29.68 inches Hg (1005.0 mb)
Winds: from the N (10 degrees) at 5 MPH (4 knots; 2.1 m/s)
Visibility: 6 or more miles (10+ km)
Ceiling: 4000 feet AGL
Clouds: scattered clouds at 2000 feet AGL
broken clouds at 4000 feet AGL
Weather: no significant weather observed at this time

METAR text: NVVV 202000Z 34005KT 9999 -SHRA SCT020 BKN040 27/25 Q1005 RMK NIL INTER 2000/2300 8000 SHRA BKN018 OVC040
Conditions at: NVVV (BAUERFIELD/EFATE, VU) observed 2000 UTC 20 February 2019
Temperature: 27.0°C (81°F)
Dewpoint: 25.0°C (77°F) [RH = 89%]
Pressure (altimeter): 29.68 inches Hg (1005.0 mb)
Winds: from the NNW (340 degrees) at 6 MPH (5 knots; 2.6 m/s)
Visibility: 6 or more miles (10+ km)
Ceiling: 4000 feet AGL
Clouds: scattered clouds at 2000 feet AGL
broken clouds at 4000 feet AGL
Weather: -SHRA  (light rain showers)

METAR text: NVVV 201900Z 30008KT 9999 SCT020 BKN300 27/24 Q1004 RMK NIL
Conditions at: NVVV (BAUERFIELD/EFATE, VU) observed 1900 UTC 20 February 2019
Temperature: 27.0°C (81°F)
Dewpoint: 24.0°C (75°F) [RH = 84%]
Pressure (altimeter): 29.65 inches Hg (1004.0 mb)
Winds: from the WNW (300 degrees) at 9 MPH (8 knots; 4.1 m/s)
Visibility: 6 or more miles (10+ km)
Ceiling: 30000 feet AGL
Clouds: scattered clouds at 2000 feet AGL
broken clouds at 30000 feet AGL
Weather: no significant weather observed at this time

METAR text: NVVV 201800Z 02004KT 9999 SCT020 27/24 Q1003 RMK NIL
Conditions at: NVVV (BAUERFIELD/EFATE, VU) observed 1800 UTC 20 February 2019
Temperature: 27.0°C (81°F)
Dewpoint: 24.0°C (75°F) [RH = 84%]
Pressure (altimeter): 29.62 inches Hg (1003.0 mb)
Winds: from the NNE (20 degrees) at 5 MPH (4 knots; 2.1 m/s)
Visibility: 6 or more miles (10+ km)
Ceiling: at least 12,000 feet AGL
Clouds: scattered clouds at 2000 feet AGL
Weather: no significant weather observed at this time

METAR text: NVVV 201700Z 36005KT 9999 SCT020 27/23 Q1003 RMK NIL
Conditions at: NVVV (BAUERFIELD/EFATE, VU) observed 1700 UTC 20 February 2019
Temperature: 27.0°C (81°F)
Dewpoint: 23.0°C (73°F) [RH = 79%]
Pressure (altimeter): 29.62 inches Hg (1003.0 mb)
Winds: from the N (360 degrees) at 6 MPH (5 knots; 2.6 m/s)
Visibility: 6 or more miles (10+ km)
Ceiling: at least 12,000 feet AGL
Clouds: scattered clouds at 2000 feet AGL
Weather: no significant weather observed at this time

METAR text: NVVV 201600Z VRB01KT 9999 BKN020 26/23 Q1003 RMK NIL
Conditions at: NVVV (BAUERFIELD/EFATE, VU) observed 1600 UTC 20 February 2019
Temperature: 26.0°C (79°F)
Dewpoint: 23.0°C (73°F) [RH = 84%]
Pressure (altimeter): 29.62 inches Hg (1003.0 mb)
Winds: variable direction winds at 1 MPH (1 knots; 0.5 m/s)
Visibility: 6 or more miles (10+ km)
Ceiling: 2000 feet AGL
Clouds: broken clouds at 2000 feet AGL
Weather: no significant weather observed at this time

METAR text: NVVV 201500Z 36007KT 9999 SCT020 BKN100 26/23 Q1003 RMK NIL
Conditions at: NVVV (BAUERFIELD/EFATE, VU) observed 1500 UTC 20 February 2019
Temperature: 26.0°C (79°F)
Dewpoint: 23.0°C (73°F) [RH = 84%]
Pressure (altimeter): 29.62 inches Hg (1003.0 mb)
Winds: from the N (360 degrees) at 8 MPH (7 knots; 3.6 m/s)
Visibility: 6 or more miles (10+ km)
Ceiling: 10000 feet AGL
Clouds: scattered clouds at 2000 feet AGL
broken clouds at 10000 feet AGL
Weather: no significant weather observed at this time

Forecast for: NVVV (BAUERFIELD/EFATE, VU)
Text: TAF NVVV 212220Z 2200/2224 VRB02KT 9999 FEW025
Forecast period: 0000 UTC 22 February 2019 to 0000 UTC 23 February 2019
Forecast type: FROM: standard forecast or significant change
Winds: variable direction winds at 2 MPH (2 knots; 1.0 m/s)
Visibility: 6 or more miles 10+ km)
Ceiling: at least 12,000 feet AGL
Clouds: few clouds at 2500 feet AGL
Weather: no significant weather forecast for this period
Text: PROB30 INTER 2200/2206 9000 -SHRA BKN018
Forecast period: 0000 to 0600 UTC 22 February 2019
Forecast type: TEMPORARY: The following changes expected for less than half the time period
Visibility: 6 miles (9 km)
Ceiling: 1800 feet AGL
Clouds: broken clouds at 1800 feet AGL
Weather: -SHRA  (light rain showers)